createdAt,value
2023-05-13T00:00:29.794Z,14.24
2023-05-13T00:02:56.488Z,14.18
2023-05-13T00:05:22.953Z,14.12
2023-05-13T00:07:49.362Z,14.07
2023-05-13T00:10:16.550Z,14.00
2023-05-13T00:12:43.757Z,13.96
2023-05-13T00:15:10.656Z,13.92
2023-05-13T00:17:37.257Z,13.89
2023-05-13T00:20:04.346Z,13.86
2023-05-13T00:22:30.711Z,13.80
2023-05-13T00:24:57.077Z,13.82
2023-05-13T00:27:23.537Z,13.80
2023-05-13T00:29:49.972Z,13.77
2023-05-13T00:32:16.424Z,13.71
2023-05-13T00:34:42.854Z,13.65
2023-05-13T00:37:10.458Z,13.62
2023-05-13T00:39:36.850Z,13.64
2023-05-13T00:42:06.342Z,13.58
2023-05-13T00:44:32.799Z,13.53
2023-05-13T00:46:59.499Z,13.47
2023-05-13T00:49:25.945Z,13.40
2023-05-13T00:51:55.101Z,13.32
2023-05-13T00:54:21.600Z,13.27
2023-05-13T00:56:47.978Z,13.18
2023-05-13T00:59:14.398Z,13.12
2023-05-13T01:02:19.370Z,13.06
2023-05-13T01:05:13.649Z,12.93
2023-05-13T01:07:54.497Z,12.85
2023-05-13T01:10:31.872Z,12.76
2023-05-13T01:13:04.087Z,12.70
2023-05-13T01:15:31.753Z,12.64
2023-05-13T01:18:06.291Z,12.55
2023-05-13T01:20:34.451Z,12.51
2023-05-13T01:23:00.966Z,12.46
2023-05-13T01:25:27.438Z,12.41
2023-05-13T01:27:54.214Z,12.34
2023-05-13T01:30:21.713Z,12.30
2023-05-13T01:32:49.213Z,12.21
2023-05-13T01:35:17.088Z,12.16
2023-05-13T01:37:43.735Z,12.12
2023-05-13T01:40:24.082Z,12.10
2023-05-13T01:42:51.262Z,12.06
2023-05-13T01:45:18.293Z,12.03
2023-05-13T01:47:44.769Z,11.99
2023-05-13T01:50:11.272Z,11.95
2023-05-13T01:52:37.626Z,11.92
2023-05-13T01:55:04.395Z,11.86
2023-05-13T01:57:30.808Z,11.83
2023-05-13T01:59:57.285Z,11.76
2023-05-13T02:02:23.717Z,11.66
2023-05-13T02:04:50.582Z,11.60
2023-05-13T02:07:17.033Z,11.57
2023-05-13T02:09:43.425Z,11.52
2023-05-13T02:12:09.882Z,11.45
2023-05-13T02:14:37.624Z,11.41
2023-05-13T02:17:04.595Z,11.37
2023-05-13T02:19:30.981Z,11.30
2023-05-13T02:21:57.495Z,11.26
2023-05-13T02:24:23.874Z,11.21
2023-05-13T02:26:50.305Z,11.20
2023-05-13T02:29:16.689Z,11.16
2023-05-13T02:31:43.251Z,11.14
2023-05-13T02:34:09.796Z,11.08
2023-05-13T02:36:36.528Z,11.04
2023-05-13T02:39:03.189Z,11.01
2023-05-13T02:41:29.655Z,11.01
2023-05-13T02:43:56.021Z,10.97
2023-05-13T02:46:22.454Z,10.95
2023-05-13T02:48:49.218Z,10.91
2023-05-13T02:51:15.637Z,10.89
2023-05-13T02:53:42.156Z,10.84
2023-05-13T02:56:08.538Z,10.79
2023-05-13T02:58:34.931Z,10.75
2023-05-13T03:01:01.344Z,10.74
2023-05-13T03:03:29.193Z,10.71
2023-05-13T03:05:55.861Z,10.66
2023-05-13T03:08:22.262Z,10.63
2023-05-13T03:10:48.883Z,10.60
2023-05-13T03:13:15.492Z,10.56
2023-05-13T03:15:44.087Z,10.50
2023-05-13T03:18:10.882Z,10.46
2023-05-13T03:20:37.307Z,10.43
2023-05-13T03:23:03.842Z,10.40
2023-05-13T03:25:30.249Z,10.35
2023-05-13T03:27:56.656Z,10.32
2023-05-13T03:30:23.351Z,10.29
2023-05-13T03:32:50.086Z,10.27
2023-05-13T03:35:16.511Z,10.26
2023-05-13T03:37:42.877Z,10.22
2023-05-13T03:40:09.682Z,10.19
2023-05-13T03:42:36.144Z,10.18
2023-05-13T03:45:02.680Z,10.17
2023-05-13T03:47:29.109Z,10.13
2023-05-13T03:49:55.491Z,10.09
2023-05-13T03:52:21.892Z,10.05
2023-05-13T03:54:48.239Z,10.08
2023-05-13T03:57:14.756Z,10.06
2023-05-13T03:59:41.173Z,10.06
2023-05-13T04:02:07.559Z,10.06
2023-05-13T04:04:34.171Z,10.09
2023-05-13T04:07:00.659Z,10.10
2023-05-13T04:09:27.053Z,10.13
2023-05-13T04:11:53.416Z,10.18
2023-05-13T04:14:19.826Z,10.26
2023-05-13T04:16:46.314Z,10.49
2023-05-13T04:19:12.803Z,11.10
2023-05-13T04:21:39.267Z,11.51
2023-05-13T04:24:06.624Z,11.78
2023-05-13T04:26:33.078Z,11.99
2023-05-13T04:28:59.480Z,12.53
2023-05-13T04:31:26.010Z,13.06
2023-05-13T04:33:52.463Z,13.60
2023-05-13T04:36:18.931Z,14.00
2023-05-13T04:38:45.344Z,14.33
2023-05-13T04:41:11.748Z,14.36
2023-05-13T04:43:38.118Z,14.75
2023-05-13T04:46:04.696Z,15.04
2023-05-13T04:48:31.200Z,15.43
2023-05-13T04:50:58.457Z,16.00
2023-05-13T04:53:25.388Z,15.94
2023-05-13T04:55:57.070Z,16.32
2023-05-13T04:58:24.833Z,16.50
2023-05-13T05:00:51.307Z,16.59
2023-05-13T05:03:17.720Z,16.24
2023-05-13T05:05:44.146Z,16.47
2023-05-13T05:08:10.745Z,16.79
2023-05-13T05:10:37.194Z,16.78
2023-05-13T05:13:03.749Z,16.59
2023-05-13T05:15:30.346Z,17.14
2023-05-13T05:17:56.994Z,17.72
2023-05-13T05:20:24.408Z,17.66
2023-05-13T05:22:50.916Z,18.20
2023-05-13T05:25:17.352Z,18.31
2023-05-13T05:27:43.769Z,18.02
2023-05-13T05:30:10.835Z,18.24
2023-05-13T05:32:37.425Z,17.94
2023-05-13T05:35:04.283Z,18.21
2023-05-13T05:37:30.750Z,18.80
2023-05-13T05:39:57.149Z,18.86
2023-05-13T05:42:23.613Z,19.11
2023-05-13T05:44:50.224Z,19.05
2023-05-13T05:47:16.611Z,19.64
2023-05-13T05:49:43.261Z,19.61
2023-05-13T05:52:11.160Z,19.65
2023-05-13T05:54:37.645Z,19.36
2023-05-13T05:57:04.598Z,19.14
2023-05-13T05:59:31.100Z,18.57
2023-05-13T06:01:57.528Z,18.66
2023-05-13T06:04:24.773Z,18.73
2023-05-13T06:06:51.337Z,19.51
2023-05-13T06:09:17.823Z,19.35
2023-05-13T06:11:44.198Z,19.93
2023-05-13T06:14:10.589Z,18.96
2023-05-13T06:16:37.000Z,18.57
2023-05-13T06:19:03.409Z,19.32
2023-05-13T06:21:31.615Z,19.46
2023-05-13T06:23:58.069Z,19.78
2023-05-13T06:26:24.566Z,19.64
2023-05-13T06:28:51.104Z,19.05
2023-05-13T06:31:17.774Z,19.14
2023-05-13T06:33:44.194Z,19.39
2023-05-13T06:36:10.618Z,19.67
2023-05-13T06:38:37.064Z,19.39
2023-05-13T06:41:03.657Z,19.24
2023-05-13T06:43:30.039Z,18.87
2023-05-13T06:45:56.665Z,19.15
2023-05-13T06:48:23.079Z,20.01
2023-05-13T06:50:49.805Z,20.14
2023-05-13T06:53:16.271Z,19.96
2023-05-13T06:55:42.760Z,20.30
2023-05-13T06:58:09.887Z,19.95
2023-05-13T07:00:37.687Z,19.94
2023-05-13T07:03:05.775Z,20.23
2023-05-13T07:05:33.078Z,20.60
2023-05-13T07:07:59.993Z,20.49
2023-05-13T07:10:27.060Z,20.99
2023-05-13T07:12:53.511Z,21.29
2023-05-13T07:15:20.165Z,20.74
2023-05-13T07:17:46.876Z,20.62
2023-05-13T07:20:13.467Z,20.13
2023-05-13T07:22:39.869Z,20.00
2023-05-13T07:25:06.750Z,20.91
2023-05-13T07:27:33.133Z,21.61
2023-05-13T07:29:59.561Z,21.85
2023-05-13T07:32:25.970Z,21.88
2023-05-13T07:34:52.396Z,21.32
2023-05-13T07:37:18.782Z,21.17
2023-05-13T07:39:45.206Z,21.44
2023-05-13T07:42:11.626Z,21.83
2023-05-13T07:44:38.085Z,21.92
2023-05-13T07:47:04.595Z,21.24
2023-05-13T07:49:31.047Z,20.32
2023-05-13T07:51:57.656Z,20.14
2023-05-13T07:54:24.092Z,19.90
2023-05-13T07:56:50.626Z,19.76
2023-05-13T07:59:18.232Z,19.66
2023-05-13T08:01:44.761Z,19.75
2023-05-13T08:04:11.444Z,20.00
2023-05-13T08:06:37.996Z,19.47
2023-05-13T08:09:04.720Z,19.44
2023-05-13T08:11:31.150Z,19.05
2023-05-13T08:13:57.706Z,19.52
2023-05-13T08:16:24.191Z,19.78
2023-05-13T08:18:50.656Z,19.53
2023-05-13T08:21:17.300Z,19.47
2023-05-13T08:23:45.891Z,19.49
2023-05-13T08:26:13.368Z,19.43
2023-05-13T08:28:39.976Z,19.49
2023-05-13T08:31:06.480Z,19.34
2023-05-13T08:33:33.143Z,19.57
2023-05-13T08:36:00.584Z,19.63
2023-05-13T08:38:27.289Z,19.91
2023-05-13T08:40:53.928Z,19.85
2023-05-13T08:43:23.619Z,19.65
2023-05-13T08:45:53.333Z,20.03
2023-05-13T08:48:20.367Z,19.73
2023-05-13T08:50:47.355Z,19.53
2023-05-13T08:53:16.440Z,19.51
2023-05-13T08:55:42.824Z,19.55
2023-05-13T08:58:09.678Z,19.73
2023-05-13T09:00:36.121Z,19.83
2023-05-13T09:03:02.956Z,20.28
2023-05-13T09:05:29.615Z,20.08
2023-05-13T09:07:57.227Z,19.94
2023-05-13T09:10:23.960Z,19.99
2023-05-13T09:12:55.092Z,20.16
2023-05-13T09:15:24.026Z,19.87
2023-05-13T09:18:03.341Z,19.93
2023-05-13T09:20:30.704Z,19.96
2023-05-13T09:22:59.921Z,20.23
2023-05-13T09:25:27.451Z,20.23
2023-05-13T09:27:57.728Z,20.37
2023-05-13T09:30:26.061Z,20.24
2023-05-13T09:33:10.094Z,20.32
2023-05-13T09:35:41.752Z,20.12
2023-05-13T09:38:29.276Z,20.28
2023-05-13T09:40:58.496Z,20.64
2023-05-13T09:43:28.245Z,20.51
2023-05-13T09:45:56.698Z,20.67
2023-05-13T09:48:25.811Z,20.91
2023-05-13T09:50:53.180Z,20.84
2023-05-13T09:53:21.213Z,20.71
2023-05-13T09:55:53.182Z,20.79
2023-05-13T09:58:20.422Z,21.23
2023-05-13T10:00:47.907Z,21.04
2023-05-13T10:03:15.191Z,21.15
2023-05-13T10:05:42.388Z,20.85
2023-05-13T10:08:10.526Z,20.75
2023-05-13T10:10:37.825Z,20.69
2023-05-13T10:13:25.330Z,20.62
2023-05-13T10:15:53.217Z,20.74
2023-05-13T10:18:21.036Z,20.83
2023-05-13T10:20:52.941Z,21.15
2023-05-13T10:23:20.314Z,21.42
2023-05-13T10:25:56.344Z,21.39
2023-05-13T10:28:24.809Z,21.28
2023-05-13T10:30:51.645Z,21.60
2023-05-13T10:33:18.485Z,21.76
2023-05-13T10:36:01.741Z,21.57
2023-05-13T10:38:43.447Z,21.81
2023-05-13T10:41:47.520Z,21.91
2023-05-13T10:44:14.158Z,21.82
2023-05-13T10:46:43.256Z,21.77
2023-05-13T10:49:16.111Z,21.50
2023-05-13T10:51:49.883Z,21.43
2023-05-13T10:54:20.743Z,21.58
2023-05-13T10:56:57.123Z,21.41
2023-05-13T10:59:23.556Z,21.34
2023-05-13T11:01:50.073Z,21.28
2023-05-13T11:04:18.183Z,21.34
2023-05-13T11:06:46.467Z,21.36
2023-05-13T11:09:31.617Z,21.50
2023-05-13T11:11:59.988Z,21.42
2023-05-13T11:14:28.022Z,21.62
2023-05-13T11:17:08.520Z,21.67
2023-05-13T11:19:37.771Z,21.75
2023-05-13T11:22:24.722Z,22.08
2023-05-13T11:25:09.230Z,22.07
2023-05-13T11:27:42.623Z,22.09
2023-05-13T11:30:22.978Z,22.19
2023-05-13T11:32:57.096Z,22.22
2023-05-13T11:35:24.723Z,22.37
2023-05-13T11:37:51.617Z,22.51
2023-05-13T11:40:36.330Z,22.51
2023-05-13T11:43:05.107Z,22.41
2023-05-13T11:45:32.095Z,22.58
2023-05-13T11:47:59.069Z,22.51
2023-05-13T11:50:30.644Z,22.74
2023-05-13T11:53:01.424Z,23.06
2023-05-13T11:55:29.915Z,23.17
2023-05-13T11:57:56.950Z,23.25
2023-05-13T12:00:31.004Z,23.38
2023-05-13T12:02:58.858Z,23.25
2023-05-13T12:05:26.693Z,23.30
2023-05-13T12:07:57.987Z,23.05
2023-05-13T12:10:25.045Z,22.94
2023-05-13T12:12:51.868Z,23.05
2023-05-13T12:15:20.537Z,23.20
2023-05-13T12:17:48.309Z,23.62
2023-05-13T12:20:18.464Z,23.60
2023-05-13T12:22:44.872Z,23.11
2023-05-13T12:25:36.344Z,23.31
2023-05-13T12:28:23.143Z,23.06
2023-05-13T12:30:57.127Z,22.99
2023-05-13T12:33:29.205Z,23.38
2023-05-13T12:36:18.157Z,23.38
2023-05-13T12:39:06.021Z,23.14
2023-05-13T12:41:34.947Z,22.94
2023-05-13T12:44:04.602Z,23.09
2023-05-13T12:46:31.493Z,23.18
2023-05-13T12:49:02.854Z,23.20
2023-05-13T12:51:30.054Z,23.11
2023-05-13T12:53:57.796Z,22.99
2023-05-13T12:56:25.562Z,22.98
2023-05-13T12:58:53.856Z,22.88
2023-05-13T13:01:20.917Z,22.87
2023-05-13T13:03:47.721Z,22.94
2023-05-13T13:06:15.019Z,23.08
2023-05-13T13:08:41.410Z,23.12
2023-05-13T13:11:08.087Z,23.22
2023-05-13T13:13:36.676Z,23.13
2023-05-13T13:16:05.073Z,22.82
2023-05-13T13:18:31.532Z,22.80
2023-05-13T13:20:57.903Z,22.79
2023-05-13T13:23:24.679Z,22.81
2023-05-13T13:25:51.078Z,23.14
2023-05-13T13:28:17.544Z,22.93
2023-05-13T13:30:46.803Z,22.94
2023-05-13T13:33:17.037Z,22.94
2023-05-13T13:35:44.767Z,22.88
2023-05-13T13:38:11.375Z,22.76
2023-05-13T13:40:37.893Z,22.91
2023-05-13T13:43:08.046Z,22.99
2023-05-13T13:45:35.515Z,22.85
2023-05-13T13:48:02.325Z,22.80
2023-05-13T13:50:29.005Z,22.94
2023-05-13T13:52:55.876Z,23.02
2023-05-13T13:55:23.327Z,23.05
2023-05-13T13:57:49.906Z,23.00
2023-05-13T14:00:16.681Z,22.90
2023-05-13T14:02:44.098Z,22.72
2023-05-13T14:05:11.795Z,22.75
2023-05-13T14:07:38.442Z,22.91
2023-05-13T14:10:06.088Z,22.87
2023-05-13T14:12:32.599Z,23.13
2023-05-13T14:14:59.290Z,23.45
2023-05-13T14:17:25.864Z,23.59
2023-05-13T14:19:54.980Z,23.70
2023-05-13T14:22:24.557Z,23.56
2023-05-13T14:24:52.247Z,23.58
2023-05-13T14:27:19.156Z,23.82
2023-05-13T14:29:47.499Z,23.61
2023-05-13T14:32:14.247Z,23.32
2023-05-13T14:34:40.634Z,23.26
2023-05-13T14:37:07.392Z,23.36
2023-05-13T14:39:33.799Z,23.37
2023-05-13T14:42:00.711Z,23.17
2023-05-13T14:44:27.103Z,23.15
2023-05-13T14:46:53.591Z,23.62
2023-05-13T14:49:20.001Z,23.75
2023-05-13T14:51:46.362Z,23.49
2023-05-13T14:54:12.829Z,23.49
2023-05-13T14:56:39.323Z,23.28
2023-05-13T14:59:05.718Z,23.43
2023-05-13T15:01:32.396Z,23.33
2023-05-13T15:03:59.680Z,23.13
2023-05-13T15:06:27.005Z,23.12
2023-05-13T15:08:53.942Z,23.05
2023-05-13T15:11:20.934Z,23.27
2023-05-13T15:13:47.338Z,23.65
2023-05-13T15:16:13.766Z,23.67
2023-05-13T15:18:40.198Z,23.81
2023-05-13T15:21:06.759Z,23.77
2023-05-13T15:23:33.446Z,23.48
2023-05-13T15:25:59.829Z,23.25
2023-05-13T15:28:26.392Z,23.00
2023-05-13T15:30:52.896Z,22.98
2023-05-13T15:33:19.321Z,23.21
2023-05-13T15:35:46.058Z,23.41
2023-05-13T15:38:12.528Z,23.50
2023-05-13T15:40:39.095Z,23.40
2023-05-13T15:43:05.476Z,23.42
2023-05-13T15:45:31.945Z,23.13
2023-05-13T15:47:58.390Z,22.99
2023-05-13T15:50:25.994Z,22.81
2023-05-13T15:52:54.327Z,22.81
2023-05-13T15:55:21.106Z,22.95
2023-05-13T15:57:48.885Z,22.87
2023-05-13T16:00:17.382Z,23.06
2023-05-13T16:02:44.276Z,23.17
2023-05-13T16:05:15.752Z,23.28
2023-05-13T16:07:44.225Z,23.24
2023-05-13T16:10:11.278Z,22.97
2023-05-13T16:12:37.811Z,22.99
2023-05-13T16:15:04.881Z,23.11
2023-05-13T16:17:31.351Z,23.30
2023-05-13T16:19:57.769Z,23.14
2023-05-13T16:22:28.987Z,23.35
2023-05-13T16:25:13.816Z,23.37
2023-05-13T16:27:42.866Z,23.51
2023-05-13T16:30:10.427Z,23.50
2023-05-13T16:32:37.155Z,23.31
2023-05-13T16:35:03.881Z,23.29
2023-05-13T16:37:31.254Z,23.13
2023-05-13T16:39:57.738Z,23.21
2023-05-13T16:42:24.181Z,23.24
2023-05-13T16:44:50.613Z,23.23
2023-05-13T16:47:17.171Z,23.05
2023-05-13T16:49:43.711Z,22.80
2023-05-13T16:52:10.104Z,22.91
2023-05-13T16:54:36.644Z,22.73
2023-05-13T16:57:03.187Z,22.63
2023-05-13T16:59:29.642Z,22.63
2023-05-13T17:01:56.112Z,22.36
2023-05-13T17:04:22.729Z,22.30
2023-05-13T17:06:49.277Z,22.31
2023-05-13T17:09:16.169Z,22.21
2023-05-13T17:11:43.439Z,22.22
2023-05-13T17:14:09.917Z,22.17
2023-05-13T17:16:36.422Z,22.08
2023-05-13T17:19:02.944Z,21.97
2023-05-13T17:21:29.428Z,22.01
2023-05-13T17:23:55.822Z,21.88
2023-05-13T17:26:22.338Z,21.71
2023-05-13T17:28:49.671Z,21.61
2023-05-13T17:31:16.263Z,21.34
2023-05-13T17:33:42.691Z,21.28
2023-05-13T17:36:09.234Z,21.15
2023-05-13T17:38:35.901Z,21.06
2023-05-13T17:41:02.439Z,20.84
2023-05-13T17:43:28.836Z,20.69
2023-05-13T17:45:55.388Z,20.64
2023-05-13T17:48:22.251Z,20.68
2023-05-13T17:50:48.734Z,20.58
2023-05-13T17:53:15.256Z,20.58
2023-05-13T17:55:41.608Z,20.49
2023-05-13T17:58:08.003Z,20.48
2023-05-13T18:00:34.441Z,20.35
2023-05-13T18:03:00.821Z,20.27
2023-05-13T18:05:27.589Z,20.05
2023-05-13T18:07:53.994Z,19.98
2023-05-13T18:10:20.663Z,19.97
2023-05-13T18:12:47.384Z,19.94
2023-05-13T18:15:13.866Z,19.81
2023-05-13T18:17:40.290Z,19.71
2023-05-13T18:20:07.279Z,19.68
2023-05-13T18:22:34.780Z,19.65
2023-05-13T18:25:01.200Z,19.57
2023-05-13T18:27:27.705Z,19.45
2023-05-13T18:29:54.170Z,19.34
2023-05-13T18:32:20.574Z,19.27
2023-05-13T18:34:47.063Z,19.14
2023-05-13T18:37:15.060Z,19.10
2023-05-13T18:39:43.417Z,19.04
2023-05-13T18:42:09.830Z,18.95
2023-05-13T18:44:36.405Z,18.88
2023-05-13T18:47:04.721Z,18.72
2023-05-13T18:49:32.296Z,18.57
2023-05-13T18:51:59.142Z,18.56
2023-05-13T18:54:27.765Z,18.49
2023-05-13T18:56:54.297Z,18.35
2023-05-13T18:59:20.678Z,18.24
2023-05-13T19:01:47.341Z,18.16
2023-05-13T19:04:15.197Z,18.06
2023-05-13T19:06:41.801Z,17.97
2023-05-13T19:09:08.224Z,17.87
2023-05-13T19:11:34.757Z,17.79
2023-05-13T19:14:01.231Z,17.65
2023-05-13T19:16:27.816Z,17.52
2023-05-13T19:18:54.346Z,17.42
2023-05-13T19:21:23.204Z,17.34
2023-05-13T19:23:50.060Z,17.29
2023-05-13T19:26:16.493Z,17.20
2023-05-13T19:28:46.176Z,17.13
2023-05-13T19:31:12.670Z,17.04
2023-05-13T19:33:39.195Z,16.93
2023-05-13T19:36:06.631Z,16.88
2023-05-13T19:38:33.915Z,16.83
2023-05-13T19:41:00.440Z,16.74
2023-05-13T19:43:26.968Z,16.64
2023-05-13T19:45:55.468Z,16.56
2023-05-13T19:48:22.045Z,16.49
2023-05-13T19:50:48.545Z,16.41
2023-05-13T19:53:15.202Z,16.35
2023-05-13T19:55:41.747Z,16.33
2023-05-13T19:58:08.479Z,16.26
2023-05-13T20:00:34.916Z,16.21
2023-05-13T20:03:01.362Z,16.10
2023-05-13T20:05:27.837Z,16.02
2023-05-13T20:07:54.249Z,15.97
2023-05-13T20:10:21.003Z,15.92
2023-05-13T20:12:47.594Z,15.86
2023-05-13T20:15:14.723Z,15.77
2023-05-13T20:17:42.256Z,15.70
2023-05-13T20:20:09.017Z,15.62
2023-05-13T20:22:35.386Z,15.56
2023-05-13T20:25:01.828Z,15.49
2023-05-13T20:27:28.306Z,15.40
2023-05-13T20:29:55.818Z,15.34
2023-05-13T20:32:24.567Z,15.32
2023-05-13T20:34:54.783Z,15.25
2023-05-13T20:37:23.998Z,15.21
2023-05-13T20:39:51.523Z,15.21
2023-05-13T20:42:18.065Z,15.16
2023-05-13T20:44:46.173Z,15.12
2023-05-13T20:47:13.269Z,15.06
2023-05-13T20:49:39.820Z,15.01
2023-05-13T20:52:08.504Z,14.97
2023-05-13T20:54:36.360Z,14.93
2023-05-13T20:57:03.535Z,14.85
2023-05-13T20:59:30.654Z,14.80
2023-05-13T21:01:57.356Z,14.80
2023-05-13T21:04:25.439Z,14.75
2023-05-13T21:06:52.517Z,14.69
2023-05-13T21:09:18.969Z,14.62
2023-05-13T21:11:45.869Z,14.56
2023-05-13T21:14:12.279Z,14.58
2023-05-13T21:16:38.727Z,14.55
2023-05-13T21:19:05.171Z,14.49
2023-05-13T21:21:32.102Z,14.47
2023-05-13T21:23:58.523Z,14.43
2023-05-13T21:26:25.168Z,14.40
2023-05-13T21:28:51.619Z,14.37
2023-05-13T21:31:18.008Z,14.35
2023-05-13T21:33:44.468Z,14.30
2023-05-13T21:36:10.860Z,14.27
2023-05-13T21:38:37.238Z,14.22
2023-05-13T21:41:03.765Z,14.19
2023-05-13T21:43:30.233Z,14.18
2023-05-13T21:45:56.630Z,14.12
2023-05-13T21:48:23.130Z,14.08
2023-05-13T21:50:49.609Z,14.05
2023-05-13T21:53:16.165Z,14.00
2023-05-13T21:55:43.949Z,13.96
2023-05-13T21:58:10.429Z,13.93
2023-05-13T22:00:36.876Z,13.92
2023-05-13T22:03:03.551Z,13.89
2023-05-13T22:05:30.493Z,13.85
2023-05-13T22:07:57.107Z,13.80
2023-05-13T22:10:23.720Z,13.73
2023-05-13T22:12:50.352Z,13.67
2023-05-13T22:15:16.872Z,13.63
2023-05-13T22:17:43.463Z,13.57
2023-05-13T22:20:10.430Z,13.53
2023-05-13T22:22:36.863Z,13.45
2023-05-13T22:25:03.704Z,13.38
2023-05-13T22:27:30.124Z,13.30
2023-05-13T22:29:56.789Z,13.26
2023-05-13T22:32:23.436Z,13.17
2023-05-13T22:34:49.826Z,13.13
2023-05-13T22:37:16.531Z,13.05
2023-05-13T22:39:43.994Z,12.99
2023-05-13T22:42:10.375Z,12.93
2023-05-13T22:44:36.764Z,12.89
2023-05-13T22:47:03.404Z,12.84
2023-05-13T22:49:29.819Z,12.80
2023-05-13T22:51:56.501Z,12.77
2023-05-13T22:54:22.957Z,12.70
2023-05-13T22:56:49.334Z,12.68
2023-05-13T22:59:15.789Z,12.64
2023-05-13T23:01:42.254Z,12.57
2023-05-13T23:04:08.746Z,12.57
2023-05-13T23:06:35.399Z,12.52
2023-05-13T23:09:02.158Z,12.46
2023-05-13T23:11:28.569Z,12.42
2023-05-13T23:13:54.983Z,12.39
2023-05-13T23:16:21.400Z,12.36
2023-05-13T23:18:47.938Z,12.34
2023-05-13T23:21:14.421Z,12.30
2023-05-13T23:23:40.815Z,12.29
2023-05-13T23:26:07.217Z,12.24
2023-05-13T23:28:33.641Z,12.18
2023-05-13T23:31:00.056Z,12.14
2023-05-13T23:33:26.611Z,12.08
2023-05-13T23:35:54.249Z,12.05
2023-05-13T23:38:20.856Z,12.00
2023-05-13T23:40:47.332Z,11.94
2023-05-13T23:43:13.845Z,11.89
2023-05-13T23:45:40.378Z,11.85
2023-05-13T23:48:06.962Z,11.79
2023-05-13T23:50:33.433Z,11.76
2023-05-13T23:52:59.816Z,11.75
2023-05-13T23:55:26.202Z,11.71
2023-05-13T23:57:52.567Z,11.66
